Terminal Aerodrome Forecast
Issued by NWS

Home | Current Version | Previous Version | Text Only | Print | Product List | Glossary On
Versions: 1 2 3 4 5 6 7 8 9 10 11 12 13
000
FTUS46 KLOX 041128
TAFVNY
TAF
KVNY 041128Z 0412/0512 VRB03KT P6SM SKC
     FM041800 18010KT P6SM SKC
     FM050400 VRB03KT 5SM HZ SKC=

USA.gov is the U.S. government's official web portal to all federal, state and local government web resources and services.